createdAt,value
2022-08-03T00:00:35.269Z,101045.22
2022-08-03T00:02:37.263Z,101043.59
2022-08-03T00:04:39.263Z,101046.72
2022-08-03T00:06:41.242Z,101047.09
2022-08-03T00:08:43.298Z,101048.28
2022-08-03T00:10:45.322Z,101042.72
2022-08-03T00:12:47.373Z,101052.72
2022-08-03T00:14:49.367Z,101053.41
2022-08-03T00:16:51.349Z,101054.16
2022-08-03T00:18:53.411Z,101039.59
2022-08-03T00:20:55.465Z,101052.91
2022-08-03T00:22:57.502Z,101044.31
2022-08-03T00:25:00.214Z,101045.00
2022-08-03T00:27:02.199Z,101053.78
2022-08-03T00:29:04.306Z,101055.22
2022-08-03T00:31:06.990Z,101063.69
2022-08-03T00:33:10.765Z,101049.38
2022-08-03T00:35:27.341Z,101048.56
2022-08-03T00:37:41.563Z,101052.19
2022-08-03T00:39:45.990Z,101042.53
2022-08-03T00:41:48.888Z,101041.38
2022-08-03T00:43:50.906Z,101049.75
2022-08-03T00:45:52.954Z,101052.13
2022-08-03T00:47:55.087Z,101040.03
2022-08-03T00:49:57.088Z,101050.50
2022-08-03T00:52:00.739Z,101045.69
2022-08-03T00:54:10.691Z,101039.72
2022-08-03T00:56:16.241Z,101037.16
2022-08-03T00:58:18.298Z,101041.94
2022-08-03T01:00:27.045Z,101039.59
2022-08-03T01:02:29.366Z,101036.31
2022-08-03T01:04:31.374Z,101037.47
2022-08-03T01:07:11.590Z,101036.22
2022-08-03T01:09:25.842Z,101029.88
2022-08-03T01:12:01.219Z,101032.63
2022-08-03T01:14:18.361Z,101028.25
2022-08-03T01:16:36.722Z,101023.53
2022-08-03T01:18:53.531Z,101022.63
2022-08-03T01:20:57.596Z,101018.94
2022-08-03T01:23:29.295Z,101029.88
2022-08-03T01:25:56.595Z,101025.44
2022-08-03T01:28:32.604Z,101022.31
2022-08-03T01:30:35.402Z,101020.59
2022-08-03T01:32:53.494Z,101027.28
2022-08-03T01:35:13.616Z,101022.44
2022-08-03T01:37:21.913Z,101017.94
2022-08-03T01:39:23.982Z,101011.22
2022-08-03T01:41:34.204Z,101020.94
2022-08-03T01:44:26.515Z,101014.47
2022-08-03T01:45:58.238Z,101015.28
2022-08-03T01:48:00.278Z,101011.34
2022-08-03T01:50:02.387Z,101013.66
2022-08-03T01:52:05.461Z,101021.34
2022-08-03T01:54:07.656Z,101011.78
2022-08-03T01:56:09.706Z,101018.94
2022-08-03T01:58:11.715Z,101018.84
2022-08-03T02:00:14.784Z,101015.66
2022-08-03T02:02:33.162Z,101015.13
2022-08-03T02:04:36.305Z,101014.75
2022-08-03T02:07:01.755Z,101018.38
2022-08-03T02:09:00.815Z,101011.13
2022-08-03T02:11:02.803Z,101019.63
2022-08-03T02:13:06.882Z,101018.03
2022-08-03T02:15:09.228Z,101013.06
2022-08-03T02:17:12.160Z,101013.94
2022-08-03T02:19:14.642Z,101007.00
2022-08-03T02:21:48.254Z,101006.59
2022-08-03T02:23:39.164Z,101002.03
2022-08-03T02:25:44.813Z,101004.94
2022-08-03T02:28:08.581Z,101006.16
2022-08-03T02:30:12.522Z,101001.38
2022-08-03T02:32:17.901Z,100999.81
2022-08-03T02:34:21.261Z,101002.22
2022-08-03T02:36:26.437Z,100999.41
2022-08-03T02:38:32.096Z,100998.19
2022-08-03T02:40:34.163Z,101000.63
2022-08-03T02:42:36.386Z,100995.38
2022-08-03T02:44:38.376Z,100997.19
2022-08-03T02:46:44.715Z,100997.53
2022-08-03T02:48:47.666Z,100996.44
2022-08-03T02:50:52.299Z,100994.75
2022-08-03T02:52:54.309Z,100991.59
2022-08-03T02:55:01.234Z,101004.84
2022-08-03T02:57:03.322Z,100999.28
2022-08-03T02:59:05.511Z,101005.34
2022-08-03T03:01:07.598Z,100998.09
2022-08-03T03:03:09.660Z,101002.09
2022-08-03T03:05:52.355Z,101010.06
2022-08-03T03:07:39.131Z,101000.41
2022-08-03T03:09:54.471Z,101006.75
2022-08-03T03:11:56.458Z,101004.84
2022-08-03T03:13:58.549Z,101007.59
2022-08-03T03:16:01.729Z,101004.38
2022-08-03T03:18:03.890Z,101002.34
2022-08-03T03:20:07.631Z,100998.34
2022-08-03T03:22:09.698Z,101000.72
2022-08-03T03:24:11.746Z,101004.25
2022-08-03T03:26:14.798Z,101008.53
2022-08-03T03:28:16.887Z,101009.66
2022-08-03T03:30:18.913Z,100999.78
2022-08-03T03:32:20.893Z,100998.16
2022-08-03T03:34:22.888Z,100999.84
2022-08-03T03:36:25.794Z,101006.25
2022-08-03T03:38:28.135Z,101007.13
2022-08-03T03:40:30.157Z,101011.47
2022-08-03T03:42:32.319Z,101016.59
2022-08-03T03:44:34.315Z,101014.47
2022-08-03T03:46:36.294Z,101018.22
2022-08-03T03:48:39.024Z,101006.63
2022-08-03T03:50:43.937Z,101002.66
2022-08-03T03:52:45.939Z,101004.50
2022-08-03T03:54:47.915Z,101000.38
2022-08-03T03:56:49.912Z,101020.06
2022-08-03T03:58:52.059Z,101017.25
2022-08-03T04:00:54.276Z,101021.38
2022-08-03T04:02:56.636Z,101031.50
2022-08-03T04:05:17.378Z,101030.28
2022-08-03T04:07:38.344Z,101031.16
2022-08-03T04:09:59.196Z,101029.53
2022-08-03T04:12:09.943Z,101030.28
2022-08-03T04:14:30.614Z,101033.47
2022-08-03T04:16:43.159Z,101033.16
2022-08-03T04:18:48.588Z,101028.75
2022-08-03T04:20:50.593Z,101026.47
2022-08-03T04:22:52.644Z,101032.13
2022-08-03T04:25:04.319Z,101029.31
2022-08-03T04:27:08.376Z,101043.44
2022-08-03T04:29:10.974Z,101039.16
2022-08-03T04:31:13.771Z,101044.13
2022-08-03T04:33:16.409Z,101047.00
2022-08-03T04:35:19.272Z,101045.44
2022-08-03T04:37:48.032Z,101048.56
2022-08-03T04:39:50.016Z,101050.63
2022-08-03T04:42:04.384Z,101050.31
2022-08-03T04:44:10.454Z,101055.88
2022-08-03T04:46:12.457Z,101057.47
2022-08-03T04:48:15.480Z,101057.59
2022-08-03T04:50:21.368Z,101058.53
2022-08-03T04:52:23.750Z,101053.75
2022-08-03T04:54:25.720Z,101052.94
2022-08-03T04:56:27.743Z,101050.97
2022-08-03T04:58:29.742Z,101047.00
2022-08-03T05:00:31.863Z,101051.78
2022-08-03T05:02:35.125Z,101054.72
2022-08-03T05:04:39.096Z,101048.38
2022-08-03T05:06:48.159Z,101052.19
2022-08-03T05:08:57.198Z,101055.47
2022-08-03T05:10:59.576Z,101051.44
2022-08-03T05:13:01.642Z,101057.47
2022-08-03T05:15:04.216Z,101058.69
2022-08-03T05:17:06.534Z,101063.19
2022-08-03T05:19:08.557Z,101057.59
2022-08-03T05:21:10.859Z,101066.84
2022-08-03T05:23:12.861Z,101058.44
2022-08-03T05:25:16.947Z,101060.44
2022-08-03T05:27:21.161Z,101061.75
2022-08-03T05:29:25.284Z,101061.06
2022-08-03T05:31:27.314Z,101065.41
2022-08-03T05:33:29.304Z,101065.50
2022-08-03T05:35:55.787Z,101059.22
2022-08-03T05:37:54.838Z,101069.81
2022-08-03T05:39:57.039Z,101064.69
2022-08-03T05:41:59.042Z,101063.22
2022-08-03T05:44:01.791Z,101062.91
2022-08-03T05:46:12.290Z,101065.47
2022-08-03T05:48:15.062Z,101061.53
2022-08-03T05:50:17.813Z,101063.63
2022-08-03T05:52:19.819Z,101071.72
2022-08-03T05:54:21.875Z,101080.25
2022-08-03T05:56:43.918Z,101079.88
2022-08-03T05:58:47.080Z,101077.56
2022-08-03T06:00:49.407Z,101088.19
2022-08-03T06:02:51.384Z,101083.78
2022-08-03T06:04:53.381Z,101078.63
2022-08-03T06:06:55.378Z,101080.28
2022-08-03T06:08:57.512Z,101079.56
2022-08-03T06:10:59.553Z,101081.25
2022-08-03T06:13:01.602Z,101077.63
2022-08-03T06:15:05.046Z,101077.28
2022-08-03T06:17:07.029Z,101074.50
2022-08-03T06:19:09.110Z,101074.97
2022-08-03T06:21:15.675Z,101071.00
2022-08-03T06:23:18.750Z,101079.06
2022-08-03T06:25:21.182Z,101079.94
2022-08-03T06:27:36.534Z,101080.38
2022-08-03T06:29:39.496Z,101080.44
2022-08-03T06:31:41.535Z,101086.22
2022-08-03T06:34:30.808Z,101075.44
2022-08-03T06:36:06.039Z,101079.13
2022-08-03T06:38:08.967Z,101074.72
2022-08-03T06:40:13.765Z,101080.41
2022-08-03T06:42:16.306Z,101083.31
2022-08-03T06:44:18.477Z,101086.19
2022-08-03T06:46:20.696Z,101085.09
2022-08-03T06:48:22.872Z,101088.41
2022-08-03T06:50:26.256Z,101094.88
2022-08-03T06:52:37.602Z,101081.66
2022-08-03T06:54:40.717Z,101084.50
2022-08-03T06:56:42.707Z,101085.78
2022-08-03T06:58:44.747Z,101080.16
2022-08-03T07:00:46.757Z,101093.53
2022-08-03T07:02:48.858Z,101091.53
2022-08-03T07:04:54.633Z,101091.53
2022-08-03T07:06:56.795Z,101095.59
2022-08-03T07:08:59.835Z,101100.44
2022-08-03T07:11:01.898Z,101105.69
2022-08-03T07:13:04.613Z,101101.22
2022-08-03T07:15:07.299Z,101094.75
2022-08-03T07:17:11.718Z,101099.16
2022-08-03T07:19:14.072Z,101093.91
2022-08-03T07:21:17.110Z,101090.63
2022-08-03T07:23:19.463Z,101097.44
2022-08-03T07:25:21.771Z,101097.00
2022-08-03T07:27:23.819Z,101096.13
2022-08-03T07:29:25.822Z,101087.22
2022-08-03T07:31:27.957Z,101091.56
2022-08-03T07:33:36.382Z,101096.72
2022-08-03T07:35:38.543Z,101097.88
2022-08-03T07:37:40.555Z,101101.47
2022-08-03T07:39:56.081Z,101101.03
2022-08-03T07:41:58.133Z,101090.09
2022-08-03T07:44:00.130Z,101099.72
2022-08-03T07:46:03.275Z,101096.06
2022-08-03T07:48:08.834Z,101091.56
2022-08-03T07:50:14.070Z,101098.38
2022-08-03T07:52:34.725Z,101095.53
2022-08-03T07:54:36.778Z,101096.66
2022-08-03T07:56:38.879Z,101099.41
2022-08-03T07:58:40.871Z,101096.59
2022-08-03T08:00:43.008Z,101089.63
2022-08-03T08:02:45.307Z,101099.69
2022-08-03T08:04:47.267Z,101090.72
2022-08-03T08:06:49.282Z,101096.69
2022-08-03T08:08:51.303Z,101086.91
2022-08-03T08:10:57.693Z,101090.94
2022-08-03T08:13:00.768Z,101094.13
2022-08-03T08:15:03.054Z,101087.53
2022-08-03T08:17:07.344Z,101075.31
2022-08-03T08:19:09.614Z,101080.47
2022-08-03T08:21:14.759Z,101089.63
2022-08-03T08:23:37.995Z,101087.97
2022-08-03T08:25:44.918Z,101089.00
2022-08-03T08:28:29.417Z,101081.72
2022-08-03T08:30:14.894Z,101080.44
2022-08-03T08:32:19.549Z,101088.16
2022-08-03T08:34:21.788Z,101083.38
2022-08-03T08:36:24.325Z,101087.63
2022-08-03T08:38:26.273Z,101088.38
2022-08-03T08:40:28.520Z,101085.09
2022-08-03T08:42:31.723Z,101090.69
2022-08-03T08:44:33.774Z,101088.50
2022-08-03T08:46:35.775Z,101089.56
2022-08-03T08:48:41.953Z,101091.06
2022-08-03T08:50:45.085Z,101094.59
2022-08-03T08:52:48.932Z,101103.63
2022-08-03T08:54:50.949Z,101097.63
2022-08-03T08:56:53.538Z,101097.63
2022-08-03T08:58:59.315Z,101101.22
2022-08-03T09:01:01.429Z,101095.41
2022-08-03T09:03:03.483Z,101093.13
2022-08-03T09:05:07.617Z,101085.50
2022-08-03T09:07:19.556Z,101084.44
2022-08-03T09:10:00.367Z,101097.91
2022-08-03T09:12:00.347Z,101096.16
2022-08-03T09:14:06.332Z,101092.84
2022-08-03T09:16:19.164Z,101096.97
2022-08-03T09:18:32.436Z,101097.09
2022-08-03T09:20:36.878Z,101097.16
2022-08-03T09:22:56.351Z,101092.13
2022-08-03T09:25:23.432Z,101101.00
2022-08-03T09:27:26.523Z,101100.94
2022-08-03T09:29:32.179Z,101097.22
2022-08-03T09:31:38.763Z,101089.38
2022-08-03T09:33:49.610Z,101095.00
2022-08-03T09:35:53.939Z,101095.44
2022-08-03T09:38:16.819Z,101093.63
2022-08-03T09:40:35.408Z,101084.50
2022-08-03T09:42:40.529Z,101093.69
2022-08-03T09:44:50.053Z,101092.22
2022-08-03T09:46:58.431Z,101086.13
2022-08-03T09:49:13.212Z,101090.78
2022-08-03T09:51:33.150Z,101077.41
2022-08-03T09:53:58.555Z,101077.88
2022-08-03T09:56:33.598Z,101074.50
2022-08-03T09:58:25.597Z,101083.59
2022-08-03T10:00:27.575Z,101080.41
2022-08-03T10:02:29.682Z,101088.41
2022-08-03T10:04:31.689Z,101083.44
2022-08-03T10:06:33.758Z,101067.44
2022-08-03T10:08:35.787Z,101085.13
2022-08-03T10:10:44.041Z,101075.31
2022-08-03T10:12:48.187Z,101073.09
2022-08-03T10:14:51.229Z,101066.22
2022-08-03T10:16:53.241Z,101075.34
2022-08-03T10:18:57.156Z,101068.13
2022-08-03T10:21:07.770Z,101055.47
2022-08-03T10:23:09.836Z,101063.81
2022-08-03T10:25:14.602Z,101058.25
2022-08-03T10:27:16.801Z,101064.22
2022-08-03T10:29:22.539Z,101080.56
2022-08-03T10:31:24.579Z,101066.44
2022-08-03T10:33:49.744Z,101067.03
2022-08-03T10:35:56.565Z,101056.34
2022-08-03T10:38:03.685Z,101067.38
2022-08-03T10:40:07.301Z,101078.28
2022-08-03T10:42:14.679Z,101067.25
2022-08-03T10:44:21.549Z,101066.06
2022-08-03T10:46:23.582Z,101059.31
2022-08-03T10:48:25.624Z,101056.88
2022-08-03T10:50:28.439Z,101060.22
2022-08-03T10:52:32.949Z,101057.19
2022-08-03T10:55:07.585Z,101055.63
2022-08-03T10:57:36.629Z,101049.09
2022-08-03T10:59:45.837Z,101054.22
2022-08-03T11:01:58.841Z,101052.41
2022-08-03T11:04:06.153Z,101053.03
2022-08-03T11:06:22.861Z,101049.38
2022-08-03T11:08:34.836Z,101047.97
2022-08-03T11:10:37.030Z,101042.72
2022-08-03T11:12:39.085Z,101046.03
2022-08-03T11:14:48.291Z,101052.56
2022-08-03T11:17:06.142Z,101052.63
2022-08-03T11:19:10.397Z,101056.59
2022-08-03T11:21:12.839Z,101047.31
2022-08-03T11:23:16.257Z,101060.06
2022-08-03T11:25:54.205Z,101043.00
2022-08-03T11:27:40.340Z,101041.41
2022-08-03T11:30:10.368Z,101031.44
2022-08-03T11:32:15.475Z,101032.47
2022-08-03T11:34:20.007Z,101032.09
2022-08-03T11:36:32.043Z,101037.88
2022-08-03T11:38:34.627Z,101029.06
2022-08-03T11:40:52.970Z,101030.56
2022-08-03T11:42:55.003Z,101030.50
2022-08-03T11:44:57.796Z,101030.16
2022-08-03T11:46:59.834Z,101023.41
2022-08-03T11:49:10.009Z,101045.50
2022-08-03T11:51:40.668Z,101034.72
2022-08-03T11:53:42.691Z,101033.59
2022-08-03T11:55:48.888Z,101016.41
2022-08-03T11:58:57.908Z,101018.47
2022-08-03T12:00:26.574Z,101012.50
2022-08-03T12:02:28.570Z,101015.22
2022-08-03T12:04:30.527Z,101029.13
2022-08-03T12:06:52.600Z,101020.50
2022-08-03T12:08:54.578Z,101020.97
2022-08-03T12:10:57.612Z,101017.03
2022-08-03T12:13:00.534Z,101010.00
2022-08-03T12:15:03.758Z,101011.00
2022-08-03T12:17:05.840Z,101004.47
2022-08-03T12:19:08.287Z,101006.16
2022-08-03T12:21:11.229Z,100991.88
2022-08-03T12:23:13.391Z,100997.66
2022-08-03T12:25:39.558Z,100996.28
2022-08-03T12:27:41.925Z,100991.34
2022-08-03T12:29:44.154Z,101004.56
2022-08-03T12:32:00.879Z,101017.31
2022-08-03T12:34:05.158Z,101003.53
2022-08-03T12:36:09.771Z,100999.00
2022-08-03T12:38:13.010Z,101000.16
2022-08-03T12:40:20.106Z,100996.72
2022-08-03T12:42:31.933Z,100990.38
2022-08-03T12:44:36.002Z,100986.31
2022-08-03T12:46:47.479Z,100992.75
2022-08-03T12:49:09.797Z,100989.72
2022-08-03T12:51:11.896Z,100985.25
2022-08-03T12:53:13.861Z,100991.00
2022-08-03T12:55:20.422Z,100990.13
2022-08-03T12:57:22.417Z,100985.09
2022-08-03T12:59:32.239Z,100995.94
2022-08-03T13:01:37.855Z,100981.94
2022-08-03T13:03:57.082Z,100979.28
2022-08-03T13:05:59.041Z,100995.78
2022-08-03T13:08:01.129Z,100991.63
2022-08-03T13:10:07.872Z,100999.66
2022-08-03T13:12:15.700Z,100980.59
2022-08-03T13:14:19.941Z,100977.91
2022-08-03T13:16:22.755Z,100973.84
2022-08-03T13:18:24.735Z,100979.28
2022-08-03T13:20:26.743Z,100978.31
2022-08-03T13:22:33.516Z,100980.03
2022-08-03T13:24:35.496Z,100972.00
2022-08-03T13:26:37.498Z,100972.94
2022-08-03T13:28:39.990Z,100957.94
2022-08-03T13:30:41.978Z,100966.53
2022-08-03T13:32:43.986Z,100971.81
2022-08-03T13:34:46.031Z,100971.88
2022-08-03T13:37:07.994Z,100975.97
2022-08-03T13:39:10.066Z,100956.72
2022-08-03T13:41:16.221Z,100963.88
2022-08-03T13:43:20.978Z,100959.06
2022-08-03T13:45:24.357Z,100958.19
2022-08-03T13:47:26.918Z,100946.38
2022-08-03T13:49:30.022Z,100961.22
2022-08-03T13:51:32.096Z,100955.50
2022-08-03T13:53:34.150Z,100947.19
2022-08-03T13:55:36.227Z,100956.72
2022-08-03T13:58:04.085Z,100957.47
2022-08-03T14:00:00.213Z,100969.50
2022-08-03T14:02:02.239Z,100963.59
2022-08-03T14:04:04.457Z,100957.88
2022-08-03T14:06:06.489Z,100954.38
2022-08-03T14:08:08.628Z,100947.31
2022-08-03T14:10:10.980Z,100956.66
2022-08-03T14:12:13.037Z,100942.00
2022-08-03T14:14:15.105Z,100950.69
2022-08-03T14:16:17.150Z,100935.41
2022-08-03T14:18:29.253Z,100932.19
2022-08-03T14:20:48.805Z,100934.13
2022-08-03T14:22:54.617Z,100925.16
2022-08-03T14:24:57.840Z,100918.19
2022-08-03T14:27:08.631Z,100927.31
2022-08-03T14:29:11.307Z,100932.78
2022-08-03T14:32:09.287Z,100924.25
2022-08-03T14:33:35.307Z,100926.34
2022-08-03T14:35:37.363Z,100919.88
2022-08-03T14:37:39.370Z,100934.66
2022-08-03T14:42:03.445Z,100927.34
2022-08-03T14:44:05.581Z,100922.06
2022-08-03T14:46:07.629Z,100927.06
2022-08-03T14:50:32.846Z,100931.66
2022-08-03T14:50:41.934Z,100930.13
2022-08-03T14:52:47.610Z,100925.63
2022-08-03T14:54:49.565Z,100920.25
2022-08-03T14:56:51.764Z,100917.75
2022-08-03T14:58:53.773Z,100915.31
2022-08-03T15:00:55.765Z,100910.81
2022-08-03T15:02:57.788Z,100918.47
2022-08-03T15:04:59.763Z,100910.81
2022-08-03T15:07:01.769Z,100904.06
2022-08-03T15:09:21.422Z,100900.97
2022-08-03T15:11:25.217Z,100919.38
2022-08-03T15:13:27.871Z,100910.16
2022-08-03T15:15:29.880Z,100914.84
2022-08-03T15:17:31.813Z,100910.34
2022-08-03T15:20:00.985Z,100908.66
2022-08-03T15:21:57.092Z,100899.31
2022-08-03T15:24:02.935Z,100894.53
2022-08-03T15:26:32.632Z,100888.28
2022-08-03T15:28:26.860Z,100892.84
2022-08-03T15:30:28.778Z,100900.72
2022-08-03T15:32:30.772Z,100904.38
2022-08-03T15:34:32.707Z,100887.00
2022-08-03T15:36:34.726Z,100892.34
2022-08-03T15:38:36.738Z,100887.19
2022-08-03T15:40:38.903Z,100889.97
2022-08-03T15:42:40.909Z,100884.50
2022-08-03T15:44:42.842Z,100886.88
2022-08-03T15:46:44.819Z,100889.19
2022-08-03T15:48:46.895Z,100892.91
2022-08-03T15:50:48.807Z,100888.69
2022-08-03T15:52:50.850Z,100882.94
2022-08-03T15:54:52.807Z,100889.72
2022-08-03T15:56:54.823Z,100884.66
2022-08-03T15:59:12.011Z,100883.75
2022-08-03T16:01:19.683Z,100884.94
2022-08-03T16:03:22.057Z,100880.47
2022-08-03T16:05:24.137Z,100877.75
2022-08-03T16:08:03.914Z,100873.09
2022-08-03T16:10:07.461Z,100867.50
2022-08-03T16:12:16.034Z,100867.84
2022-08-03T16:14:32.224Z,100860.94
2022-08-03T16:16:40.920Z,100867.47
2022-08-03T16:18:42.973Z,100876.31
2022-08-03T16:20:45.425Z,100867.38
2022-08-03T16:22:48.543Z,100868.06
2022-08-03T16:24:51.406Z,100862.66
2022-08-03T16:27:04.699Z,100867.97
2022-08-03T16:29:22.172Z,100867.78
2022-08-03T16:31:27.334Z,100859.75
2022-08-03T16:33:29.412Z,100862.44
2022-08-03T16:35:31.414Z,100864.38
2022-08-03T16:37:38.768Z,100864.13
2022-08-03T16:39:41.425Z,100870.47
2022-08-03T16:41:53.575Z,100864.09
2022-08-03T16:44:06.687Z,100873.94
2022-08-03T16:46:11.862Z,100869.56
2022-08-03T16:48:15.213Z,100854.88
2022-08-03T16:50:19.895Z,100862.22
2022-08-03T16:52:22.899Z,100861.66
2022-08-03T16:54:25.025Z,100865.72
2022-08-03T16:56:30.088Z,100861.22
2022-08-03T16:58:41.194Z,100870.31
2022-08-03T17:00:46.309Z,100871.72
2022-08-03T17:02:48.552Z,100865.69
2022-08-03T17:04:51.581Z,100862.53
2022-08-03T17:06:53.667Z,100864.13
2022-08-03T17:08:55.703Z,100871.31
2022-08-03T17:10:57.745Z,100865.78
2022-08-03T17:12:59.768Z,100868.53
2022-08-03T17:15:01.784Z,100862.38
2022-08-03T17:17:16.175Z,100864.63
2022-08-03T17:19:18.754Z,100871.25
2022-08-03T17:21:29.462Z,100875.78
2022-08-03T17:23:58.723Z,100881.84
2022-08-03T17:26:02.072Z,100867.59
2022-08-03T17:28:48.531Z,100867.81
2022-08-03T17:30:48.345Z,100871.47
2022-08-03T17:32:56.587Z,100869.28
2022-08-03T17:34:59.769Z,100876.81
2022-08-03T17:37:04.456Z,100869.19
2022-08-03T17:39:07.028Z,100879.56
2022-08-03T17:41:11.279Z,100882.78
2022-08-03T17:44:13.083Z,100890.13
2022-08-03T17:45:42.213Z,100885.16
2022-08-03T17:47:57.747Z,100887.72
2022-08-03T17:50:00.105Z,100892.03
2022-08-03T17:52:06.755Z,100884.97
2022-08-03T17:54:35.822Z,100890.75
2022-08-03T17:57:21.976Z,100889.34
2022-08-03T17:59:54.964Z,100891.31
2022-08-03T18:02:47.449Z,100895.59
2022-08-03T18:05:02.215Z,100894.03
2022-08-03T18:07:18.990Z,100895.09
2022-08-03T18:10:06.441Z,100896.72
2022-08-03T18:11:45.988Z,100898.69
2022-08-03T18:14:27.998Z,100891.75
2022-08-03T18:16:45.961Z,100885.19
2022-08-03T18:18:53.972Z,100900.56
2022-08-03T18:20:58.520Z,100892.97
2022-08-03T18:23:04.814Z,100894.31
2022-08-03T18:25:08.254Z,100890.94
2022-08-03T18:27:10.998Z,100897.81
2022-08-03T18:29:13.604Z,100903.94
2022-08-03T18:32:00.231Z,100899.91
2022-08-03T18:34:16.307Z,100905.78
2022-08-03T18:36:01.881Z,100907.13
2022-08-03T18:38:05.037Z,100913.72
2022-08-03T18:40:12.595Z,100911.84
2022-08-03T18:42:25.604Z,100916.56
2022-08-03T18:44:38.108Z,100922.25
2022-08-03T18:47:17.025Z,100923.66
2022-08-03T18:49:18.990Z,100927.44
2022-08-03T18:54:51.713Z,100928.13
2022-08-03T18:56:55.520Z,100933.88
2022-08-03T18:59:16.530Z,100928.63
2022-08-03T19:01:59.804Z,100932.44
2022-08-03T19:04:13.764Z,100934.72
2022-08-03T19:06:21.255Z,100934.84
2022-08-03T19:08:46.050Z,100929.31
2022-08-03T19:10:57.725Z,100933.94
2022-08-03T19:13:14.065Z,100927.53
2022-08-03T19:15:16.160Z,100931.97
2022-08-03T19:17:23.276Z,100932.50
2022-08-03T19:19:43.984Z,100941.03
2022-08-03T19:21:46.609Z,100945.69
2022-08-03T19:23:51.284Z,100933.94
2022-08-03T19:25:57.483Z,100941.22
2022-08-03T19:27:59.463Z,100933.22
2022-08-03T19:30:14.244Z,100942.31
2022-08-03T19:32:24.485Z,100937.41
2022-08-03T19:34:27.172Z,100936.81
2022-08-03T19:36:29.659Z,100932.41
2022-08-03T19:38:31.760Z,100939.38
2022-08-03T19:40:35.409Z,100938.56
2022-08-03T19:42:37.411Z,100937.81
2022-08-03T19:44:43.682Z,100941.91
2022-08-03T19:46:58.272Z,100940.56
2022-08-03T19:49:01.075Z,100937.47
2022-08-03T19:51:12.293Z,100944.00
2022-08-03T19:53:14.999Z,100937.97
2022-08-03T19:55:17.696Z,100944.88
2022-08-03T19:57:22.313Z,100949.06
2022-08-03T19:59:24.602Z,100951.09
2022-08-03T20:01:28.531Z,100942.31
2022-08-03T20:03:42.909Z,100946.03
2022-08-03T20:05:52.337Z,100946.94
2022-08-03T20:08:00.254Z,100940.91
2022-08-03T20:10:04.890Z,100942.16
2022-08-03T20:12:09.211Z,100943.84
2022-08-03T20:14:20.723Z,100946.78
2022-08-03T20:16:28.380Z,100944.41
2022-08-03T20:18:30.802Z,100944.91
2022-08-03T20:20:36.381Z,100943.31
2022-08-03T20:22:43.272Z,100946.28
2022-08-03T20:24:52.742Z,100945.91
2022-08-03T20:26:57.929Z,100947.50
2022-08-03T20:29:10.161Z,100938.25
2022-08-03T20:31:12.427Z,100940.28
2022-08-03T20:33:18.383Z,100934.69
2022-08-03T20:35:21.178Z,100936.31
2022-08-03T20:37:23.189Z,100946.50
2022-08-03T20:39:25.377Z,100939.28
2022-08-03T20:41:30.605Z,100943.91
2022-08-03T20:43:33.911Z,100946.84
2022-08-03T20:45:58.355Z,100953.50
2022-08-03T20:47:58.130Z,100952.34
2022-08-03T20:50:00.180Z,100944.69
2022-08-03T20:52:02.162Z,100952.75
2022-08-03T20:54:09.656Z,100951.19
2022-08-03T20:56:26.882Z,100943.56
2022-08-03T20:58:29.326Z,100946.75
2022-08-03T21:00:31.377Z,100950.44
2022-08-03T21:02:34.467Z,100946.50
2022-08-03T21:04:41.731Z,100947.72
2022-08-03T21:06:54.178Z,100957.00
2022-08-03T21:09:04.239Z,100956.66
2022-08-03T21:11:11.757Z,100953.44
2022-08-03T21:13:08.788Z,100930.72
2022-08-03T21:13:24.467Z,100961.19
2022-08-03T21:16:13.136Z,100963.63
2022-08-03T21:17:53.089Z,100964.88
2022-08-03T21:19:55.118Z,100964.50
2022-08-03T21:21:57.312Z,100966.97
2022-08-03T21:24:00.237Z,100966.22
2022-08-03T21:26:02.239Z,100975.13
2022-08-03T21:28:04.312Z,100972.38
2022-08-03T21:30:08.963Z,100969.09
2022-08-03T21:32:14.078Z,100976.00
2022-08-03T21:34:21.319Z,100974.03
2022-08-03T21:36:24.616Z,100974.03
2022-08-03T21:38:29.874Z,100975.66
2022-08-03T21:40:32.406Z,100974.88
2022-08-03T21:42:34.625Z,100978.53
2022-08-03T21:44:37.088Z,100982.19
2022-08-03T21:46:42.151Z,100978.97
2022-08-03T21:48:44.883Z,100985.44
2022-08-03T21:50:46.889Z,100972.56
2022-08-03T21:52:49.227Z,100971.78
2022-08-03T21:54:51.411Z,100978.69
2022-08-03T21:56:53.414Z,100976.31
2022-08-03T21:59:06.773Z,100984.00
2022-08-03T22:01:09.171Z,100985.63
2022-08-03T22:03:12.107Z,100986.41
2022-08-03T22:05:19.598Z,100986.84
2022-08-03T22:07:31.555Z,100989.66
2022-08-03T22:09:35.366Z,100988.06
2022-08-03T22:11:37.794Z,100990.91
2022-08-03T22:13:44.261Z,100980.84
2022-08-03T22:15:47.804Z,100984.88
2022-08-03T22:17:54.553Z,100995.41
2022-08-03T22:19:58.577Z,100994.19
2022-08-03T22:22:00.733Z,100989.78
2022-08-03T22:24:02.733Z,100989.00
2022-08-03T22:26:04.874Z,100988.19
2022-08-03T22:28:09.750Z,100991.03
2022-08-03T22:30:14.732Z,100993.06
2022-08-03T22:32:16.891Z,100994.25
2022-08-03T22:34:26.472Z,100994.28
2022-08-03T22:36:29.048Z,100992.69
2022-08-03T22:38:31.083Z,101000.31
2022-08-03T22:40:33.743Z,100992.66
2022-08-03T22:42:36.132Z,100999.94
2022-08-03T22:44:38.177Z,100996.69
2022-08-03T22:46:40.428Z,100997.13
2022-08-03T22:48:42.579Z,100999.94
2022-08-03T22:50:45.498Z,101000.34
2022-08-03T22:52:47.555Z,100992.66
2022-08-03T22:54:49.721Z,100987.44
2022-08-03T22:56:52.061Z,100991.09
2022-08-03T22:58:54.045Z,100995.53
2022-08-03T23:01:04.933Z,100991.50
2022-08-03T23:03:06.972Z,100993.53
2022-08-03T23:05:59.620Z,101002.00
2022-08-03T23:07:39.088Z,101011.66
2022-08-03T23:09:41.906Z,101005.22
2022-08-03T23:11:46.010Z,101009.66
2022-08-03T23:13:50.210Z,101003.63
2022-08-03T23:15:56.210Z,101000.41
2022-08-03T23:17:58.883Z,101007.25
2022-08-03T23:20:08.040Z,101007.22
2022-08-03T23:22:29.499Z,101010.88
2022-08-03T23:24:38.563Z,101014.06
2022-08-03T23:26:40.531Z,101012.09
2022-08-03T23:28:45.499Z,101008.41
2022-08-03T23:30:48.725Z,101025.72
2022-08-03T23:32:54.651Z,101010.81
2022-08-03T23:35:19.623Z,101005.16
2022-08-03T23:37:21.814Z,101008.38
2022-08-03T23:39:24.023Z,101001.94
2022-08-03T23:41:26.098Z,100999.53
2022-08-03T23:43:52.396Z,101005.56
2022-08-03T23:45:56.938Z,101005.16
2022-08-03T23:47:58.931Z,101007.16
2022-08-03T23:50:01.130Z,101005.16
2022-08-03T23:52:13.254Z,100999.91
2022-08-03T23:54:45.886Z,101002.72
2022-08-03T23:57:05.378Z,101007.97
2022-08-03T23:59:30.602Z,101007.97
